Time;durP1;ratioP1;P1;durP2;ratioP2;P2;SDS_P1;SDS_P2;PMS_P1;PMS_P2;Temp;Humidity;BMP_temperature;BMP_pressure;BME280_temperature;BME280_humidity;BME280_pressure;Samples;Min_cycle;Max_cycle;Signal;HPM_P1;HPM_P2
2023/05/11 00:00:49;;;;;;;1.00;1.00;;;20.00;66.20;;;;;;5083452;28;44099;-69
2023/05/11 00:03:17;;;;;;;1.23;1.23;;;20.00;65.90;;;;;;5084020;28;43445;-70
2023/05/11 00:05:48;;;;;;;1.20;1.20;;;20.00;66.00;;;;;;5081754;28;43569;-71
2023/05/11 00:08:16;;;;;;;1.20;1.20;;;19.90;66.60;;;;;;5085184;27;43590;-70
2023/05/11 00:10:47;;;;;;;1.07;1.00;;;19.90;66.60;;;;;;5078402;28;43409;-70
2023/05/11 00:13:15;;;;;;;1.47;1.37;;;19.90;66.40;;;;;;5087184;27;43371;-71
2023/05/11 00:15:47;;;;;;;1.07;1.00;;;19.90;66.20;;;;;;5081869;28;43514;-70
2023/05/11 00:18:14;;;;;;;1.00;1.00;;;19.80;66.10;;;;;;5077469;28;43817;-70
2023/05/11 00:20:42;;;;;;;1.07;1.07;;;19.80;66.70;;;;;;5082022;27;43763;-69
2023/05/11 00:23:10;;;;;;;1.10;1.10;;;19.80;66.50;;;;;;5084532;28;43494;-69
2023/05/11 00:25:38;;;;;;;1.13;1.13;;;19.90;66.10;;;;;;5080517;28;43509;-70
2023/05/11 00:28:09;;;;;;;1.30;1.30;;;20.00;65.30;;;;;;5086891;27;43574;-71
2023/05/11 00:30:38;;;;;;;1.00;1.00;;;20.10;65.00;;;;;;5082322;28;43521;-69
2023/05/11 00:33:07;;;;;;;1.50;1.20;;;20.10;65.00;;;;;;5079866;28;43392;-70
2023/05/11 00:35:35;;;;;;;0.90;0.90;;;20.10;65.20;;;;;;5088758;27;43521;-70
2023/05/11 00:38:03;;;;;;;1.10;1.10;;;20.10;65.50;;;;;;5077601;27;45538;-69
2023/05/11 00:40:35;;;;;;;1.37;1.30;;;20.00;65.50;;;;;;5074083;28;43463;-71
2023/05/11 00:43:03;;;;;;;1.10;1.10;;;20.00;66.20;;;;;;5075775;28;43434;-70
2023/05/11 00:45:31;;;;;;;1.00;1.00;;;19.90;66.10;;;;;;5082415;27;43380;-70
2023/05/11 00:47:59;;;;;;;0.93;0.93;;;19.90;66.10;;;;;;5082136;28;43943;-70
2023/05/11 00:50:29;;;;;;;1.50;1.27;;;19.90;66.00;;;;;;5080314;27;44531;-69
2023/05/11 00:52:57;;;;;;;1.17;1.17;;;19.80;65.90;;;;;;5085268;28;43457;-70
2023/05/11 00:55:25;;;;;;;1.10;1.10;;;19.80;66.30;;;;;;5070501;28;44753;-70
2023/05/11 00:57:53;;;;;;;1.17;1.17;;;19.80;66.40;;;;;;5083634;28;46006;-70
2023/05/11 01:00:22;;;;;;;0.90;0.90;;;19.80;66.40;;;;;;5080825;27;43377;-70
2023/05/11 01:02:51;;;;;;;1.00;1.00;;;19.80;66.20;;;;;;5082214;28;43465;-70
2023/05/11 01:05:19;;;;;;;1.30;1.30;;;19.80;66.10;;;;;;5083488;28;43387;-70
2023/05/11 01:07:53;;;;;;;1.13;1.13;;;19.80;66.20;;;;;;5081596;27;43959;-70
2023/05/11 01:10:27;;;;;;;1.20;1.20;;;19.80;66.60;;;;;;5080637;28;44709;-69
2023/05/11 01:12:58;;;;;;;1.00;1.00;;;19.80;67.00;;;;;;5068370;28;43561;-70
2023/05/11 01:15:35;;;;;;;1.13;1.13;;;19.90;65.50;;;;;;5083734;28;43567;-70
2023/05/11 01:18:10;;;;;;;1.10;1.10;;;20.00;65.00;;;;;;5080483;27;44055;-70
2023/05/11 01:20:39;;;;;;;1.27;1.27;;;20.10;64.90;;;;;;5081729;27;44155;-69
2023/05/11 01:23:32;;;;;;;1.10;1.10;;;20.10;65.10;;;;;;5082838;28;43422;-70
2023/05/11 01:26:09;;;;;;;1.17;1.17;;;20.10;65.30;;;;;;5039043;28;43581;-69
2023/05/11 01:29:09;;;;;;;1.00;1.00;;;20.00;65.40;;;;;;5082291;27;43918;-69
2023/05/11 01:31:40;;;;;;;1.00;1.00;;;19.90;65.40;;;;;;5060277;28;44606;-70
2023/05/11 01:34:11;;;;;;;1.00;1.00;;;19.90;66.30;;;;;;5080870;28;43450;-69
2023/05/11 01:36:55;;;;;;;1.27;1.27;;;19.90;66.30;;;;;;5066788;28;43819;-70
2023/05/11 01:39:26;;;;;;;1.07;1.07;;;19.80;66.60;;;;;;5078646;28;45431;-70
2023/05/11 01:41:54;;;;;;;1.03;1.03;;;19.80;65.80;;;;;;5082047;28;44876;-70
2023/05/11 01:44:23;;;;;;;1.37;1.27;;;19.80;66.00;;;;;;5079923;27;44112;-70
2023/05/11 01:46:52;;;;;;;1.20;1.20;;;19.80;66.60;;;;;;5076754;28;43501;-70
2023/05/11 01:49:21;;;;;;;1.30;1.20;;;19.80;66.40;;;;;;5065619;28;43951;-70
2023/05/11 01:51:50;;;;;;;1.00;1.00;;;19.80;66.20;;;;;;5083415;28;43882;-70
2023/05/11 01:54:18;;;;;;;1.20;1.20;;;19.80;66.10;;;;;;5086768;28;43505;-70
2023/05/11 01:56:46;;;;;;;1.20;1.20;;;19.80;66.20;;;;;;5078133;27;43411;-70
2023/05/11 01:59:14;;;;;;;1.30;1.30;;;19.70;66.60;;;;;;5078162;28;45826;-70
2023/05/11 02:01:41;;;;;;;1.30;1.30;;;19.80;66.50;;;;;;5080177;27;44726;-69
2023/05/11 02:04:14;;;;;;;1.20;1.20;;;19.90;66.00;;;;;;5077062;28;44161;-70
2023/05/11 02:06:44;;;;;;;1.30;1.30;;;20.00;66.20;;;;;;5080393;28;43418;-70
2023/05/11 02:09:12;;;;;;;1.23;1.23;;;20.10;65.50;;;;;;5084409;27;43595;-69
2023/05/11 02:11:41;;;;;;;1.30;1.30;;;20.10;65.50;;;;;;5078552;28;44571;-69
2023/05/11 02:14:09;;;;;;;1.30;1.20;;;20.00;65.40;;;;;;5081741;27;43435;-69
2023/05/11 02:16:39;;;;;;;1.10;1.10;;;20.00;65.40;;;;;;5077503;28;43399;-71
2023/05/11 02:19:07;;;;;;;1.20;1.20;;;20.00;65.40;;;;;;5076491;28;45750;-70
2023/05/11 02:21:37;;;;;;;1.20;1.20;;;19.90;66.30;;;;;;5084584;27;44782;-69
2023/05/11 02:24:05;;;;;;;1.20;1.20;;;19.90;66.40;;;;;;5078212;27;43449;-70
2023/05/11 02:26:34;;;;;;;1.30;1.30;;;19.80;65.90;;;;;;5082128;28;43589;-69
2023/05/11 02:29:02;;;;;;;1.30;1.30;;;19.80;65.90;;;;;;5071325;27;43618;-70
2023/05/11 02:31:30;;;;;;;1.40;1.40;;;19.80;65.80;;;;;;5065520;28;44918;-69
2023/05/11 02:34:04;;;;;;;1.47;1.47;;;19.80;66.50;;;;;;5081080;28;43460;-70
2023/05/11 02:36:34;;;;;;;1.27;1.27;;;19.80;66.60;;;;;;5068379;28;44046;-70
2023/05/11 02:39:05;;;;;;;1.40;1.40;;;19.80;66.20;;;;;;5081056;28;44955;-70
2023/05/11 02:41:35;;;;;;;1.50;1.50;;;19.80;66.00;;;;;;5064613;28;44708;-70
2023/05/11 02:44:04;;;;;;;1.80;1.80;;;19.80;65.90;;;;;;5077490;28;43458;-70
2023/05/11 02:46:35;;;;;;;1.90;1.90;;;19.70;66.20;;;;;;5076025;28;43551;-70
2023/05/11 02:49:05;;;;;;;2.13;2.03;;;19.70;66.40;;;;;;5064140;28;43828;-72
2023/05/11 02:51:36;;;;;;;2.37;2.37;;;19.80;67.20;;;;;;5078470;28;44769;-71
2023/05/11 02:54:07;;;;;;;2.30;2.30;;;19.90;66.10;;;;;;5084081;27;43351;-70
2023/05/11 02:56:38;;;;;;;2.40;2.30;;;20.00;65.50;;;;;;5077378;28;43441;-70
2023/05/11 02:59:07;;;;;;;2.57;2.47;;;20.10;65.50;;;;;;5073913;28;45551;-70
2023/05/11 03:01:35;;;;;;;2.20;2.20;;;20.10;65.50;;;;;;5078971;28;43855;-69
2023/05/11 03:04:04;;;;;;;2.20;2.20;;;20.10;65.40;;;;;;5076762;28;43873;-70
2023/05/11 03:06:33;;;;;;;2.57;2.47;;;20.00;65.30;;;;;;5079156;28;43576;-70
2023/05/11 03:09:02;;;;;;;2.90;2.80;;;20.00;65.30;;;;;;5079516;28;43911;-70
2023/05/11 03:11:34;;;;;;;3.00;2.80;;;19.90;66.20;;;;;;5068705;28;43485;-71
2023/05/11 03:14:03;;;;;;;2.90;2.80;;;19.90;66.50;;;;;;5079086;28;43470;-70
2023/05/11 03:16:31;;;;;;;2.77;2.67;;;19.80;66.10;;;;;;5076442;28;44023;-69
2023/05/11 03:18:59;;;;;;;3.10;3.00;;;19.80;65.80;;;;;;5080574;28;45151;-69
2023/05/11 03:21:27;;;;;;;3.50;3.40;;;19.80;65.70;;;;;;5078920;28;46092;-69
2023/05/11 03:23:55;;;;;;;3.63;3.53;;;19.80;66.00;;;;;;5074329;28;43478;-69
2023/05/11 03:26:23;;;;;;;4.27;3.97;;;19.80;66.60;;;;;;5079514;28;43999;-69
2023/05/11 03:28:53;;;;;;;2.87;2.87;;;19.70;66.20;;;;;;5081881;27;43852;-70
2023/05/11 03:31:20;;;;;;;3.60;3.50;;;19.70;66.00;;;;;;5074272;28;45175;-70
2023/05/11 03:33:49;;;;;;;3.80;3.70;;;19.70;65.90;;;;;;5079232;27;43464;-70
2023/05/11 03:36:17;;;;;;;4.27;4.17;;;19.70;66.00;;;;;;5075231;28;43447;-70
2023/05/11 03:38:45;;;;;;;4.43;4.23;;;19.70;66.60;;;;;;5080482;27;44028;-70
2023/05/11 03:41:17;;;;;;;4.73;4.53;;;19.80;66.70;;;;;;5077295;28;44642;-69
2023/05/11 03:43:50;;;;;;;4.83;4.63;;;19.80;66.10;;;;;;5081844;28;43410;-69
2023/05/11 03:46:22;;;;;;;5.03;4.83;;;20.00;65.90;;;;;;5068326;28;44026;-69
2023/05/11 03:48:50;;;;;;;5.07;4.77;;;20.10;65.70;;;;;;5075186;28;44822;-70
2023/05/11 03:51:22;;;;;;;4.90;4.70;;;20.10;65.80;;;;;;5076785;28;43534;-70
2023/05/11 03:53:50;;;;;;;4.73;4.50;;;20.00;65.60;;;;;;5077504;27;43335;-70
2023/05/11 03:56:18;;;;;;;4.80;4.60;;;20.00;65.60;;;;;;5073158;28;43454;-70
2023/05/11 03:58:46;;;;;;;5.50;5.30;;;19.90;65.60;;;;;;5077215;28;44317;-69
2023/05/11 04:01:14;;;;;;;5.23;5.03;;;19.90;66.40;;;;;;5076390;27;43505;-69
2023/05/11 04:03:49;;;;;;;5.70;5.40;;;19.90;66.40;;;;;;5073055;28;44057;-70
2023/05/11 04:06:17;;;;;;;5.17;4.97;;;19.80;66.10;;;;;;5077928;28;43548;-69
2023/05/11 04:08:49;;;;;;;5.37;5.17;;;19.80;66.00;;;;;;5077068;27;44370;-70
2023/05/11 04:11:17;;;;;;;5.80;5.60;;;19.80;66.10;;;;;;5072493;28;45016;-70
2023/05/11 04:13:45;;;;;;;5.90;5.60;;;19.70;66.50;;;;;;5087029;27;43394;-70
2023/05/11 04:16:13;;;;;;;6.77;6.37;;;19.70;66.50;;;;;;5087679;28;43655;-70
2023/05/11 04:18:41;;;;;;;6.53;6.13;;;19.80;66.50;;;;;;5066374;28;45636;-70
2023/05/11 04:21:10;;;;;;;6.03;5.80;;;19.90;66.30;;;;;;5066811;28;45102;-71
2023/05/11 04:23:38;;;;;;;5.80;5.60;;;19.90;66.10;;;;;;5064195;28;43448;-69
2023/05/11 04:26:06;;;;;;;6.40;6.10;;;19.90;65.80;;;;;;5069446;28;43634;-69
2023/05/11 04:28:34;;;;;;;6.97;6.57;;;19.90;66.40;;;;;;5067087;28;46026;-69
2023/05/11 04:31:02;;;;;;;6.53;6.23;;;19.80;66.30;;;;;;5070615;28;43488;-71
2023/05/11 04:33:30;;;;;;;7.00;6.70;;;19.80;66.10;;;;;;5069954;28;43411;-70
2023/05/11 04:35:59;;;;;;;6.33;6.03;;;19.80;65.90;;;;;;5070361;28;43550;-70
2023/05/11 04:38:29;;;;;;;7.07;6.73;;;19.80;65.90;;;;;;5071551;28;43607;-70
2023/05/11 04:40:57;;;;;;;7.30;6.93;;;19.80;66.40;;;;;;5071711;28;44324;-70
2023/05/11 04:43:25;;;;;;;6.83;6.53;;;19.70;66.60;;;;;;5069606;28;43367;-70
2023/05/11 04:45:53;;;;;;;7.00;6.60;;;19.80;66.40;;;;;;5069848;28;43609;-71
2023/05/11 04:48:26;;;;;;;7.10;6.70;;;19.80;66.30;;;;;;5075272;28;45821;-70
2023/05/11 04:50:54;;;;;;;7.50;7.10;;;19.80;66.30;;;;;;5065883;28;45204;-70
2023/05/11 04:53:28;;;;;;;8.17;7.77;;;19.70;66.30;;;;;;5072809;28;43371;-71
2023/05/11 04:55:57;;;;;;;7.83;7.33;;;19.70;66.60;;;;;;5082512;27;43458;-70
2023/05/11 04:58:25;;;;;;;8.13;7.57;;;19.80;66.70;;;;;;5078057;27;45856;-70
2023/05/11 05:00:53;;;;;;;7.90;7.50;;;19.90;66.30;;;;;;5078173;27;43661;-70
2023/05/11 05:03:21;;;;;;;7.90;7.40;;;19.90;66.10;;;;;;5082160;27;43527;-69
2023/05/11 05:05:49;;;;;;;7.67;7.27;;;20.00;66.00;;;;;;5082667;27;43585;-70
2023/05/11 05:08:17;;;;;;;8.37;7.87;;;19.90;66.00;;;;;;5077641;27;45034;-69
2023/05/11 05:10:47;;;;;;;8.33;7.93;;;19.90;66.20;;;;;;5078113;28;44749;-69
2023/05/11 05:13:15;;;;;;;7.97;7.50;;;19.90;66.20;;;;;;5082161;28;43393;-70
2023/05/11 05:15:43;;;;;;;7.33;6.93;;;19.90;66.00;;;;;;5082640;28;43555;-70
2023/05/11 05:18:12;;;;;;;8.07;7.47;;;19.90;65.90;;;;;;5081015;27;45674;-70
2023/05/11 05:20:41;;;;;;;8.63;8.03;;;19.80;65.80;;;;;;5080205;27;43438;-70
2023/05/11 05:23:09;;;;;;;8.90;8.40;;;19.80;66.30;;;;;;5076872;28;43462;-72
2023/05/11 05:25:37;;;;;;;7.50;7.10;;;19.80;66.40;;;;;;5072390;28;43550;-69
2023/05/11 05:28:07;;;;;;;8.03;7.63;;;19.80;66.20;;;;;;5079697;28;45431;-69
2023/05/11 05:30:36;;;;;;;8.70;8.13;;;19.80;65.90;;;;;;5077924;28;45259;-70
2023/05/11 05:33:04;;;;;;;8.50;8.00;;;19.70;65.80;;;;;;5085302;28;43967;-70
2023/05/11 05:35:34;;;;;;;9.40;8.77;;;19.70;66.30;;;;;;5079989;28;43417;-70
2023/05/11 05:38:02;;;;;;;9.43;8.83;;;19.70;66.50;;;;;;5082053;28;45887;-70
2023/05/11 05:40:30;;;;;;;10.17;9.47;;;19.80;66.60;;;;;;5079634;28;44128;-69
2023/05/11 05:42:58;;;;;;;9.70;9.00;;;19.90;66.10;;;;;;5079791;28;43419;-70
2023/05/11 05:45:27;;;;;;;9.40;8.70;;;19.90;66.00;;;;;;5085710;28;43492;-70
2023/05/11 05:47:59;;;;;;;9.17;8.57;;;19.90;65.60;;;;;;5074493;28;43812;-70
2023/05/11 05:50:27;;;;;;;9.43;8.83;;;19.90;66.10;;;;;;5083267;28;44712;-69
2023/05/11 05:52:55;;;;;;;10.03;9.33;;;19.90;66.90;;;;;;5085775;27;43407;-69
2023/05/11 05:55:25;;;;;;;8.93;8.33;;;19.90;65.90;;;;;;5080144;27;44058;-70
2023/05/11 05:57:54;;;;;;;8.87;8.30;;;19.80;65.40;;;;;;5080793;28;45742;-70
2023/05/11 06:00:24;;;;;;;9.73;9.03;;;19.80;65.40;;;;;;5079996;28;44853;-70
2023/05/11 06:03:01;;;;;;;9.27;8.57;;;19.80;66.10;;;;;;5077159;28;43470;-70
2023/05/11 06:05:29;;;;;;;9.20;8.60;;;19.80;66.40;;;;;;5076479;28;43934;-69
2023/05/11 06:07:58;;;;;;;8.47;7.87;;;19.70;65.90;;;;;;5081412;28;45601;-70
2023/05/11 06:10:38;;;;;;;8.77;8.17;;;19.70;65.70;;;;;;5074676;27;44412;-70
2023/05/11 06:13:08;;;;;;;9.27;8.60;;;19.70;65.70;;;;;;5084582;27;43345;-70
2023/05/11 06:15:38;;;;;;;9.03;8.43;;;19.70;66.00;;;;;;5077557;28;43482;-71
2023/05/11 06:18:26;;;;;;;8.47;7.87;;;19.70;66.40;;;;;;5073833;28;44081;-69
2023/05/11 06:20:55;;;;;;;8.97;8.43;;;19.70;66.30;;;;;;5080093;28;44497;-69
2023/05/11 06:23:26;;;;;;;9.00;8.50;;;19.80;66.20;;;;;;5078443;28;43340;-69
2023/05/11 06:25:53;;;;;;;8.47;7.97;;;19.80;66.00;;;;;;5077180;28;43968;-69
2023/05/11 06:28:23;;;;;;;7.90;7.40;;;19.80;65.60;;;;;;5080753;28;46330;-70
2023/05/11 06:30:52;;;;;;;7.33;7.03;;;19.80;65.50;;;;;;5078244;27;43929;-70
2023/05/11 06:33:20;;;;;;;7.57;7.17;;;19.80;65.60;;;;;;5077127;28;43603;-70
2023/05/11 06:35:50;;;;;;;7.27;6.90;;;19.70;65.60;;;;;;5087144;28;43384;-69
2023/05/11 06:38:22;;;;;;;6.93;6.63;;;19.70;65.70;;;;;;5074947;28;46156;-70
2023/05/11 06:40:52;;;;;;;6.57;6.27;;;19.70;65.80;;;;;;5079574;28;44779;-70
2023/05/11 06:43:20;;;;;;;7.10;6.80;;;19.60;65.80;;;;;;5079669;27;43398;-70
2023/05/11 06:45:49;;;;;;;6.80;6.50;;;19.60;65.90;;;;;;5073586;28;43893;-69
2023/05/11 06:48:18;;;;;;;6.67;6.37;;;19.60;66.00;;;;;;5079781;27;45599;-69
2023/05/11 06:50:46;;;;;;;6.83;6.50;;;19.60;66.30;;;;;;5077379;28;44846;-69
2023/05/11 06:53:16;;;;;;;7.00;6.70;;;19.60;66.50;;;;;;5083757;27;43379;-70
2023/05/11 06:55:44;;;;;;;6.40;6.10;;;19.70;66.10;;;;;;5069832;28;43373;-70
2023/05/11 06:58:19;;;;;;;6.70;6.20;;;19.90;65.50;;;;;;5075926;28;43903;-71
2023/05/11 07:00:47;;;;;;;6.10;5.80;;;20.00;64.80;;;;;;5080496;27;43470;-70
2023/05/11 07:03:18;;;;;;;6.50;6.03;;;20.20;64.20;;;;;;5076581;28;43391;-70
2023/05/11 07:05:46;;;;;;;6.30;6.00;;;20.40;63.50;;;;;;5081104;27;43892;-70
2023/05/11 07:08:15;;;;;;;6.07;5.67;;;20.60;63.00;;;;;;5077323;27;43752;-70
2023/05/11 07:10:46;;;;;;;5.77;5.47;;;20.80;62.50;;;;;;5080764;27;43478;-70
2023/05/11 07:13:14;;;;;;;5.87;5.57;;;20.90;62.20;;;;;;5076283;28;43511;-70
2023/05/11 07:15:41;;;;;;;6.10;5.80;;;21.00;62.80;;;;;;5080441;27;43369;-70
2023/05/11 07:18:12;;;;;;;6.10;5.80;;;21.00;61.90;;;;;;5072253;28;43921;-70
2023/05/11 07:20:40;;;;;;;6.20;5.87;;;20.90;62.00;;;;;;5080474;28;43461;-70
2023/05/11 07:23:08;;;;;;;5.70;5.50;;;20.80;62.40;;;;;;5082291;28;43521;-69
2023/05/11 07:25:38;;;;;;;5.90;5.60;;;20.70;62.80;;;;;;5086253;27;43417;-69
2023/05/11 07:28:06;;;;;;;6.20;5.90;;;20.50;63.40;;;;;;5075821;28;43969;-70
2023/05/11 07:30:34;;;;;;;5.90;5.70;;;20.40;63.60;;;;;;5077328;28;43700;-71
2023/05/11 07:33:02;;;;;;;5.73;5.43;;;20.30;63.90;;;;;;5078549;28;43446;-70
2023/05/11 07:35:30;;;;;;;5.67;5.37;;;20.20;64.00;;;;;;5077026;28;43404;-69
2023/05/11 07:38:00;;;;;;;5.40;5.20;;;20.10;64.30;;;;;;5075139;28;45797;-70
2023/05/11 07:40:28;;;;;;;5.60;5.20;;;20.10;65.00;;;;;;5081403;27;43420;-70
2023/05/11 07:42:58;;;;;;;5.30;5.10;;;20.10;64.90;;;;;;5076443;28;43930;-70
2023/05/11 07:45:25;;;;;;;5.20;5.00;;;20.20;64.60;;;;;;5080859;28;43458;-70
2023/05/11 07:47:53;;;;;;;5.07;4.87;;;20.20;64.10;;;;;;5081877;28;46106;-71
2023/05/11 07:50:21;;;;;;;5.50;5.30;;;20.30;64.00;;;;;;5086902;27;43339;-70
2023/05/11 07:52:51;;;;;;;5.50;5.30;;;20.30;64.00;;;;;;5084853;28;43504;-70
2023/05/11 07:55:23;;;;;;;5.43;5.23;;;20.20;64.10;;;;;;5087324;28;43505;-70
2023/05/11 07:57:53;;;;;;;5.10;4.90;;;20.20;64.50;;;;;;5077552;28;43926;-70
2023/05/11 08:00:23;;;;;;;4.70;4.60;;;20.10;64.60;;;;;;5083012;27;43512;-70
2023/05/11 08:02:51;;;;;;;6.00;5.70;;;20.00;65.40;;;;;;5076698;28;43504;-71
2023/05/11 08:05:20;;;;;;;5.00;4.80;;;19.90;65.30;;;;;;5082759;28;43739;-69
2023/05/11 08:07:51;;;;;;;4.67;4.47;;;19.90;65.20;;;;;;5082980;28;43619;-70
2023/05/11 08:10:19;;;;;;;5.10;4.80;;;19.80;65.10;;;;;;5078407;28;43461;-69
2023/05/11 08:12:47;;;;;;;4.87;4.70;;;19.80;65.90;;;;;;5075592;28;43384;-70
2023/05/11 08:15:15;;;;;;;4.73;4.60;;;19.80;66.80;;;;;;5078227;28;43422;-70
2023/05/11 08:17:45;;;;;;;4.97;4.77;;;19.80;66.00;;;;;;5080550;27;43884;-69
2023/05/11 08:20:13;;;;;;;4.70;4.40;;;19.80;65.70;;;;;;5084795;28;44601;-69
2023/05/11 08:22:41;;;;;;;4.80;4.70;;;19.70;65.50;;;;;;5078824;28;43416;-69
2023/05/11 08:25:09;;;;;;;4.50;4.30;;;19.70;66.20;;;;;;5088499;28;43398;-70
2023/05/11 08:27:37;;;;;;;4.33;4.13;;;19.70;66.30;;;;;;5078808;27;43787;-70
2023/05/11 08:30:07;;;;;;;4.70;4.40;;;19.70;65.90;;;;;;5084264;28;43615;-70
2023/05/11 08:32:39;;;;;;;4.57;4.37;;;19.80;65.40;;;;;;5088215;28;43358;-69
2023/05/11 08:35:27;;;;;;;4.33;4.13;;;20.00;65.10;;;;;;5081154;28;43501;-70
2023/05/11 08:37:54;;;;;;;4.30;4.20;;;20.00;64.60;;;;;;5071752;28;45715;-69
2023/05/11 08:40:23;;;;;;;4.37;4.17;;;20.00;64.90;;;;;;5086364;27;43536;-70
2023/05/11 08:42:52;;;;;;;3.90;3.80;;;20.00;64.80;;;;;;5085571;27;43492;-69
2023/05/11 08:45:19;;;;;;;3.97;3.87;;;19.90;64.70;;;;;;5081221;28;43383;-70
2023/05/11 08:47:48;;;;;;;3.87;3.77;;;19.80;65.20;;;;;;5088246;27;43860;-70
2023/05/11 08:50:16;;;;;;;4.20;4.10;;;19.80;65.90;;;;;;5079889;27;43687;-69
2023/05/11 08:52:45;;;;;;;3.97;3.87;;;19.80;65.70;;;;;;5075147;27;43372;-69
2023/05/11 08:55:13;;;;;;;3.83;3.73;;;19.70;65.30;;;;;;5085303;28;43488;-70
2023/05/11 08:57:41;;;;;;;3.63;3.53;;;19.70;65.20;;;;;;5081719;28;43924;-69
2023/05/11 09:00:09;;;;;;;3.53;3.43;;;19.60;65.40;;;;;;5080242;28;44116;-70
2023/05/11 09:02:37;;;;;;;3.80;3.70;;;19.70;66.20;;;;;;5079298;28;43793;-70
2023/05/11 09:05:06;;;;;;;3.60;3.40;;;19.60;65.80;;;;;;5080312;27;44063;-70
2023/05/11 09:07:34;;;;;;;3.47;3.37;;;19.60;65.40;;;;;;5081776;27;43839;-70
2023/05/11 09:10:04;;;;;;;3.60;3.50;;;19.60;65.40;;;;;;5070115;28;45001;-70
2023/05/11 09:12:32;;;;;;;3.70;3.60;;;19.60;65.60;;;;;;5083453;28;43396;-70
2023/05/11 09:15:00;;;;;;;3.30;3.20;;;19.60;66.20;;;;;;5080148;28;43433;-69
2023/05/11 09:17:44;;;;;;;3.20;3.10;;;19.60;65.90;;;;;;5088602;27;43610;-70
2023/05/11 09:20:12;;;;;;;3.17;3.07;;;19.60;65.60;;;;;;5080731;27;43871;-70
2023/05/11 09:22:42;;;;;;;2.93;2.93;;;19.60;65.50;;;;;;5084875;28;43421;-69
2023/05/11 09:25:13;;;;;;;3.07;2.97;;;19.50;65.50;;;;;;5081846;27;43555;-70
2023/05/11 09:27:41;;;;;;;3.30;3.10;;;19.50;66.00;;;;;;5080649;27;43594;-70
2023/05/11 09:30:14;;;;;;;3.63;3.53;;;19.60;66.10;;;;;;5081557;28;43503;-71
2023/05/11 09:32:50;;;;;;;3.30;3.10;;;19.70;65.70;;;;;;5069674;28;43487;-70
2023/05/11 09:35:20;;;;;;;3.10;3.00;;;19.80;65.00;;;;;;5081898;27;43934;-69
2023/05/11 09:38:01;;;;;;;2.90;2.80;;;20.00;64.80;;;;;;5083046;27;45071;-70
2023/05/11 09:40:30;;;;;;;3.07;2.97;;;20.00;64.70;;;;;;5083034;28;44013;-69
2023/05/11 09:43:02;;;;;;;2.60;2.50;;;20.00;64.60;;;;;;5086075;28;43402;-70
2023/05/11 09:45:37;;;;;;;2.50;2.50;;;19.90;64.50;;;;;;5083878;27;43420;-70
2023/05/11 09:48:13;;;;;;;2.73;2.63;;;19.90;64.50;;;;;;5076837;28;43678;-69
2023/05/11 09:50:43;;;;;;;3.00;2.90;;;19.80;65.30;;;;;;5084439;28;43474;-70
2023/05/11 09:53:11;;;;;;;2.90;2.80;;;19.70;65.70;;;;;;5085120;28;43372;-69
2023/05/11 09:55:43;;;;;;;2.10;2.10;;;19.70;65.20;;;;;;5074147;28;43477;-69
2023/05/11 09:58:11;;;;;;;2.30;2.30;;;19.70;65.00;;;;;;5073973;28;44853;-70
2023/05/11 10:00:39;;;;;;;3.03;2.93;;;19.60;65.00;;;;;;5073758;28;43510;-70
2023/05/11 10:03:07;;;;;;;2.70;2.70;;;19.60;65.50;;;;;;5067899;28;43401;-69
2023/05/11 10:05:36;;;;;;;2.73;2.63;;;19.60;65.80;;;;;;5064992;28;44026;-71
2023/05/11 10:08:05;;;;;;;2.70;2.60;;;19.70;65.70;;;;;;5074652;28;43844;-70
2023/05/11 10:10:34;;;;;;;2.97;2.87;;;19.70;65.50;;;;;;5082954;27;43392;-71
2023/05/11 10:13:03;;;;;;;2.50;2.40;;;19.70;65.10;;;;;;5081819;27;43405;-70
2023/05/11 10:15:34;;;;;;;2.47;2.43;;;19.70;65.50;;;;;;5072443;28;43513;-70
2023/05/11 10:18:02;;;;;;;2.50;2.40;;;19.70;65.60;;;;;;5076956;28;44788;-70
2023/05/11 10:20:30;;;;;;;2.87;2.70;;;19.70;65.40;;;;;;5083563;27;44360;-70
2023/05/11 10:22:58;;;;;;;2.43;2.43;;;19.60;65.00;;;;;;5077546;27;43469;-70
2023/05/11 10:25:26;;;;;;;2.50;2.40;;;19.60;65.00;;;;;;5086808;27;43446;-69
2023/05/11 10:27:54;;;;;;;2.90;2.70;;;19.60;65.40;;;;;;5081495;28;43925;-69
2023/05/11 10:30:23;;;;;;;2.80;2.70;;;19.60;65.80;;;;;;5080499;28;43391;-70
2023/05/11 10:32:51;;;;;;;2.30;2.30;;;19.60;65.50;;;;;;5077198;28;43366;-70
2023/05/11 10:35:20;;;;;;;2.83;2.73;;;19.70;65.50;;;;;;5085223;27;43382;-69
2023/05/11 10:37:47;;;;;;;2.23;2.17;;;19.70;65.20;;;;;;5078411;28;43901;-70
2023/05/11 10:40:18;;;;;;;2.33;2.23;;;19.70;65.00;;;;;;5078303;27;43541;-69
2023/05/11 10:43:17;;;;;;;2.50;2.40;;;19.70;65.50;;;;;;5083254;27;43838;-70
2023/05/11 10:45:51;;;;;;;2.40;2.30;;;19.70;65.60;;;;;;5077868;28;43632;-69
2023/05/11 10:48:45;;;;;;;2.30;2.20;;;19.60;65.10;;;;;;5065107;28;43853;-69
2023/05/11 10:51:22;;;;;;;2.20;2.20;;;19.60;65.00;;;;;;5075674;28;43442;-69
2023/05/11 10:53:58;;;;;;;2.37;2.37;;;19.60;65.10;;;;;;5072378;28;43327;-69
2023/05/11 10:56:35;;;;;;;2.40;2.30;;;19.50;65.40;;;;;;5082540;28;43386;-69
2023/05/11 11:00:03;;;;;;;2.30;2.20;;;19.60;65.60;;;;;;5070078;28;45630;-71
2023/05/11 11:02:33;;;;;;;2.27;2.27;;;19.60;65.40;;;;;;5015546;28;44077;-69
2023/05/11 11:05:04;;;;;;;2.20;2.20;;;19.50;65.40;;;;;;5067468;28;43442;-69
2023/05/11 11:07:32;;;;;;;2.10;2.10;;;19.50;65.40;;;;;;5084867;27;44082;-69
2023/05/11 11:10:04;;;;;;;2.30;2.20;;;19.50;65.40;;;;;;5079016;27;43844;-69
2023/05/11 11:12:33;;;;;;;2.10;2.10;;;19.60;65.70;;;;;;5079399;28;43481;-69
2023/05/11 11:15:03;;;;;;;2.60;2.40;;;19.70;65.10;;;;;;5079231;28;43339;-69
2023/05/11 11:17:33;;;;;;;2.40;2.30;;;19.80;64.50;;;;;;5081774;27;43454;-69
2023/05/11 11:20:03;;;;;;;2.20;2.10;;;19.90;64.30;;;;;;5084941;28;45605;-70
2023/05/11 11:22:45;;;;;;;2.10;2.10;;;19.90;64.40;;;;;;5087374;27;43453;-70
2023/05/11 11:25:14;;;;;;;2.03;2.00;;;19.80;64.30;;;;;;5078617;28;43458;-70
2023/05/11 11:27:55;;;;;;;2.23;2.07;;;19.80;64.30;;;;;;5083530;28;43397;-70
2023/05/11 11:30:24;;;;;;;2.17;2.10;;;19.70;64.50;;;;;;5071492;28;45747;-71
2023/05/11 11:32:54;;;;;;;2.03;1.93;;;19.70;65.20;;;;;;5083133;28;44817;-70
2023/05/11 11:35:47;;;;;;;2.40;2.30;;;19.60;65.00;;;;;;5082534;28;43449;-70
2023/05/11 11:38:16;;;;;;;2.13;2.03;;;19.60;64.60;;;;;;5079170;27;43525;-69
2023/05/11 11:40:45;;;;;;;2.40;2.30;;;19.60;64.70;;;;;;5079985;28;44011;-70
2023/05/11 11:43:19;;;;;;;2.20;2.10;;;19.60;64.90;;;;;;5086266;28;43410;-69
2023/05/11 11:45:52;;;;;;;2.30;2.20;;;19.50;65.20;;;;;;5088159;28;43808;-69
2023/05/11 11:48:32;;;;;;;2.23;2.20;;;19.50;65.00;;;;;;5071709;28;43507;-69
2023/05/11 11:51:04;;;;;;;2.00;1.90;;;19.50;64.80;;;;;;5083510;28;43701;-69
2023/05/11 11:54:06;;;;;;;2.33;2.20;;;19.50;64.90;;;;;;5078420;28;43945;-71
2023/05/11 11:56:37;;;;;;;2.10;2.10;;;19.50;65.20;;;;;;5068637;28;43441;-70
2023/05/11 11:59:09;;;;;;;2.30;2.20;;;19.50;65.40;;;;;;5077852;28;43411;-69
2023/05/11 12:01:37;;;;;;;2.00;2.00;;;19.50;65.00;;;;;;5082074;28;43896;-70
2023/05/11 12:04:43;;;;;;;2.30;2.20;;;19.50;65.00;;;;;;5080932;28;43450;-69
2023/05/11 12:07:11;;;;;;;2.33;2.23;;;19.40;64.90;;;;;;5087811;28;43376;-69
2023/05/11 12:09:42;;;;;;;1.97;1.97;;;19.50;65.20;;;;;;5089709;28;43460;-69
2023/05/11 12:12:11;;;;;;;1.93;1.93;;;19.50;65.30;;;;;;5080477;28;44002;-69
2023/05/11 12:14:43;;;;;;;2.40;2.30;;;19.50;65.20;;;;;;5083357;28;43426;-70
2023/05/11 12:17:15;;;;;;;1.80;1.80;;;19.60;64.60;;;;;;5083364;27;43395;-70
2023/05/11 12:19:45;;;;;;;2.50;2.40;;;19.80;64.30;;;;;;5080404;28;43796;-70
2023/05/11 12:22:15;;;;;;;2.33;2.20;;;19.90;64.20;;;;;;5073367;28;43779;-69
2023/05/11 12:24:43;;;;;;;2.10;1.90;;;19.90;64.30;;;;;;5080178;28;43558;-70
2023/05/11 12:27:11;;;;;;;2.50;2.40;;;19.80;64.10;;;;;;5084603;28;43403;-69
2023/05/11 12:29:40;;;;;;;2.00;2.00;;;19.80;64.10;;;;;;5085342;27;43420;-69
2023/05/11 12:32:12;;;;;;;1.93;1.93;;;19.70;64.30;;;;;;5079693;27;43627;-71
2023/05/11 12:34:40;;;;;;;2.03;1.93;;;19.60;65.00;;;;;;5084494;27;43829;-69
2023/05/11 12:37:09;;;;;;;2.00;2.00;;;19.60;65.10;;;;;;5073550;28;43660;-70
2023/05/11 12:39:38;;;;;;;1.87;1.87;;;19.60;64.70;;;;;;5085311;27;43956;-70
2023/05/11 12:42:06;;;;;;;2.03;2.00;;;19.60;64.70;;;;;;5080705;28;43861;-71
2023/05/11 12:44:35;;;;;;;2.50;2.40;;;19.50;64.70;;;;;;5076398;28;43384;-72
2023/05/11 12:47:03;;;;;;;2.33;2.20;;;19.50;65.10;;;;;;5082866;28;43429;-71
2023/05/11 12:49:31;;;;;;;2.10;2.10;;;19.50;65.20;;;;;;5077689;28;43356;-70
2023/05/11 12:52:06;;;;;;;2.13;2.03;;;19.60;64.80;;;;;;5075761;28;45648;-70
2023/05/11 12:54:37;;;;;;;2.00;2.00;;;19.60;64.80;;;;;;5084167;27;43413;-69
2023/05/11 12:57:06;;;;;;;1.90;1.80;;;19.70;65.40;;;;;;5081533;28;43449;-70
2023/05/11 12:59:36;;;;;;;2.17;2.07;;;19.60;64.40;;;;;;5080603;28;43630;-70
2023/05/11 13:02:08;;;;;;;2.00;1.90;;;19.60;64.60;;;;;;5081542;28;45992;-70
2023/05/11 13:04:39;;;;;;;2.07;2.07;;;19.60;64.80;;;;;;5074240;28;43412;-69